Time;durP1;ratioP1;P1;durP2;ratioP2;P2;SDS_P1;SDS_P2;PMS_P1;PMS_P2;Temp;Humidity;BMP_temperature;BMP_pressure;BME280_temperature;BME280_humidity;BME280_pressure;Samples;Min_cycle;Max_cycle;Signal;HPM_P1;HPM_P2
2023/02/26 00:01:25;;;;;;;3.10;2.90;;;;;;;-3.65;100.00;96200.91;5039795;28;20194;-68
2023/02/26 00:03:56;;;;;;;3.00;2.87;;;;;;;-3.70;100.00;96203.03;5060868;28;20219;-69
2023/02/26 00:06:26;;;;;;;3.13;2.70;;;;;;;-3.72;100.00;96210.94;5058023;28;20198;-68
2023/02/26 00:08:54;;;;;;;3.27;2.43;;;;;;;-3.72;100.00;96207.50;5018710;28;20551;-69
2023/02/26 00:11:22;;;;;;;2.77;2.57;;;;;;;-3.76;100.00;96216.47;5058680;28;20225;-68
2023/02/26 00:13:50;;;;;;;4.27;2.27;;;;;;;-3.76;100.00;96230.25;5064832;28;21047;-68
2023/02/26 00:16:26;;;;;;;3.37;2.60;;;;;;;-3.76;100.00;96225.06;5049476;28;20262;-68
2023/02/26 00:18:55;;;;;;;2.67;2.50;;;;;;;-3.82;100.00;96220.34;5061822;28;20229;-68
2023/02/26 00:21:25;;;;;;;2.60;2.40;;;;;;;-3.83;100.00;96231.63;5058153;28;20616;-68
2023/02/26 00:23:53;;;;;;;2.83;2.63;;;;;;;-3.80;100.00;96228.81;5020386;28;20225;-69
2023/02/26 00:26:21;;;;;;;3.23;2.90;;;;;;;-3.78;100.00;96235.53;5060836;28;20202;-68
2023/02/26 00:28:49;;;;;;;2.80;2.60;;;;;;;-3.75;100.00;96241.41;5056474;28;20682;-69
2023/02/26 00:31:19;;;;;;;2.70;2.60;;;;;;;-3.76;100.00;96234.56;5045285;28;20598;-69
2023/02/26 00:33:48;;;;;;;2.77;2.50;;;;;;;-3.80;100.00;96233.97;5063041;28;20230;-69
2023/02/26 00:36:21;;;;;;;3.07;2.87;;;;;;;-3.81;100.00;96235.75;5064481;28;20574;-68
2023/02/26 00:39:00;;;;;;;2.50;2.30;;;;;;;-3.76;100.00;96242.34;5014110;28;20657;-69
2023/02/26 00:41:29;;;;;;;3.80;2.73;;;;;;;-3.76;100.00;96245.78;5058928;28;20206;-69
2023/02/26 00:43:57;;;;;;;2.97;2.03;;;;;;;-3.82;100.00;96241.88;5068071;28;20218;-68
2023/02/26 00:46:30;;;;;;;2.47;2.27;;;;;;;-3.89;100.00;96239.88;5061740;28;20225;-68
2023/02/26 00:49:03;;;;;;;2.73;2.10;;;;;;;-3.97;100.00;96251.63;5044754;28;20610;-69
2023/02/26 00:51:33;;;;;;;3.90;2.47;;;;;;;-4.02;100.00;96250.31;5060218;28;20864;-68
2023/02/26 00:54:06;;;;;;;2.30;2.20;;;;;;;-4.04;100.00;96254.78;5064989;28;20228;-70
2023/02/26 00:56:34;;;;;;;2.20;2.10;;;;;;;-4.09;100.00;96249.97;5024509;28;20257;-69
2023/02/26 00:59:02;;;;;;;2.80;2.57;;;;;;;-4.12;100.00;96256.19;5069587;28;20229;-69
2023/02/26 01:01:30;;;;;;;2.00;1.83;;;;;;;-4.14;100.00;96259.84;5060775;28;20524;-69
2023/02/26 01:03:58;;;;;;;2.30;2.20;;;;;;;-4.17;100.00;96260.06;5043717;28;20913;-69
2023/02/26 01:06:28;;;;;;;2.10;2.00;;;;;;;-4.19;100.00;96259.34;5058073;28;20205;-67
2023/02/26 01:09:03;;;;;;;2.67;2.47;;;;;;;-4.30;100.00;96247.25;5062987;28;20210;-68
2023/02/26 01:11:32;;;;;;;3.60;2.03;;;;;;;-4.26;100.00;96264.19;5011209;28;20320;-69
2023/02/26 01:14:00;;;;;;;3.10;2.90;;;;;;;-4.27;100.00;96262.53;5043077;28;20225;-69
2023/02/26 01:16:31;;;;;;;2.80;2.70;;;;;;;-4.31;100.00;96266.28;5058294;28;20202;-70
2023/02/26 01:19:03;;;;;;;2.50;2.40;;;;;;;-4.30;100.00;96265.34;5042122;28;20206;-70
2023/02/26 01:21:34;;;;;;;2.97;2.37;;;;;;;-4.25;100.00;96265.81;5056415;28;21008;-69
2023/02/26 01:24:06;;;;;;;2.60;2.43;;;;;;;-4.13;100.00;96256.34;5063154;28;20514;-67
2023/02/26 01:26:35;;;;;;;3.37;2.17;;;;;;;-4.16;100.00;96253.97;5019449;28;20211;-68
2023/02/26 01:29:03;;;;;;;2.80;2.60;;;;;;;-4.20;100.00;96258.53;5063387;28;20225;-68
2023/02/26 01:31:37;;;;;;;2.23;2.13;;;;;;;-4.20;100.00;96250.78;5059641;28;20326;-68
2023/02/26 01:34:10;;;;;;;2.47;2.27;;;;;;;-4.16;100.00;96259.97;5049063;28;20318;-68
2023/02/26 01:36:41;;;;;;;1.97;1.90;;;;;;;-4.15;100.00;96261.59;5063844;28;20495;-69
2023/02/26 01:39:14;;;;;;;2.23;2.13;;;;;;;-4.13;100.00;96246.78;5070448;28;20203;-68
2023/02/26 01:41:47;;;;;;;3.27;2.40;;;;;;;-4.09;100.00;96250.78;5022119;28;20330;-69
2023/02/26 01:44:22;;;;;;;2.17;2.07;;;;;;;-4.09;100.00;96250.78;5063837;28;20210;-68
2023/02/26 01:47:04;;;;;;;2.30;1.97;;;;;;;-4.08;100.00;96256.81;5069827;28;20312;-67
2023/02/26 01:49:32;;;;;;;1.87;1.77;;;;;;;-4.08;100.00;96254.22;5042433;28;20812;-68
2023/02/26 01:52:01;;;;;;;2.27;2.07;;;;;;;-4.08;100.00;96256.81;5064818;28;20206;-67
2023/02/26 01:54:30;;;;;;;2.53;2.03;;;;;;;-4.09;100.00;96255.97;5059740;28;20494;-67
2023/02/26 01:57:05;;;;;;;2.80;1.73;;;;;;;-4.14;100.00;96262.44;5023273;28;20472;-69
2023/02/26 01:59:36;;;;;;;1.63;1.63;;;;;;;-4.14;100.00;96270.22;5059217;28;20199;-69
2023/02/26 02:02:05;;;;;;;2.93;2.23;;;;;;;-4.14;100.00;96271.00;5055700;28;20648;-69
2023/02/26 02:04:33;;;;;;;2.17;1.97;;;;;;;-4.14;100.00;96265.84;5041515;28;20990;-68
2023/02/26 02:07:00;;;;;;;1.90;1.80;;;;;;;-4.13;100.00;96274.44;5063242;28;20214;-68
2023/02/26 02:09:28;;;;;;;1.67;1.67;;;;;;;-4.15;100.00;96271.16;5066106;28;20214;-67
2023/02/26 02:12:08;;;;;;;2.00;1.80;;;;;;;-4.18;100.00;96285.13;5026040;28;20210;-68
2023/02/26 02:14:43;;;;;;;2.30;2.17;;;;;;;-4.20;100.00;96279.25;5058674;28;20225;-67
2023/02/26 02:17:15;;;;;;;2.10;1.90;;;;;;;-4.21;100.00;96280.97;5071918;28;20449;-67
2023/02/26 02:20:19;;;;;;;2.03;1.93;;;;;;;-4.19;100.00;96288.66;5061367;28;20427;-68
2023/02/26 02:22:58;;;;;;;1.40;1.40;;;;;;;-4.23;100.00;96289.81;5059937;28;20202;-69
2023/02/26 02:25:48;;;;;;;2.03;1.90;;;;;;;-4.23;100.00;96289.81;5062489;28;20350;-69
2023/02/26 02:28:23;;;;;;;2.40;2.13;;;;;;;-4.19;100.00;96301.59;5022125;28;20218;-67
2023/02/26 02:31:06;;;;;;;1.73;1.63;;;;;;;-4.17;100.00;96298.88;5066451;28;20206;-67
2023/02/26 02:33:38;;;;;;;1.73;1.63;;;;;;;-4.16;100.00;96306.53;5059820;28;20699;-69
2023/02/26 02:36:11;;;;;;;1.60;1.60;;;;;;;-4.20;100.00;96299.94;5043478;28;20203;-69
2023/02/26 02:38:42;;;;;;;2.67;1.73;;;;;;;-4.13;100.00;96303.72;5061522;28;20222;-69
2023/02/26 02:41:15;;;;;;;1.70;1.70;;;;;;;-4.14;100.00;96306.44;5069397;28;20202;-68
2023/02/26 02:43:43;;;;;;;2.10;2.00;;;;;;;-4.16;100.00;96309.13;5022355;28;20939;-68
2023/02/26 02:46:16;;;;;;;1.93;1.80;;;;;;;-4.13;100.00;96310.66;5065259;28;20546;-68
2023/02/26 02:48:48;;;;;;;1.57;1.57;;;;;;;-4.09;100.00;96307.72;5065278;28;20194;-69
2023/02/26 02:51:21;;;;;;;3.37;2.40;;;;;;;-4.15;100.00;96310.75;5055570;28;20209;-68
2023/02/26 02:53:51;;;;;;;2.47;2.33;;;;;;;-4.09;100.00;96302.53;5061287;28;20791;-69
2023/02/26 02:56:23;;;;;;;2.70;2.00;;;;;;;-4.09;100.00;96305.13;5063321;28;20586;-67
2023/02/26 02:58:55;;;;;;;2.10;2.00;;;;;;;-4.08;100.00;96306.78;5019609;28;20665;-69
2023/02/26 03:01:26;;;;;;;4.00;3.27;;;;;;;-4.12;100.00;96315.72;5060123;28;20210;-67
2023/02/26 03:03:57;;;;;;;1.97;1.97;;;;;;;-4.17;100.00;96310.06;5069848;28;20245;-69
2023/02/26 03:06:24;;;;;;;2.17;2.07;;;;;;;-4.18;100.00;96318.75;5047596;28;20198;-67
2023/02/26 03:08:52;;;;;;;2.60;2.47;;;;;;;-4.19;100.00;96319.69;5061778;28;20520;-69
2023/02/26 03:11:20;;;;;;;2.40;2.20;;;;;;;-4.24;100.00;96324.38;5060789;28;20207;-67
2023/02/26 03:13:49;;;;;;;2.20;2.10;;;;;;;-4.31;100.00;96323.19;5061584;28;20438;-69
2023/02/26 03:16:38;;;;;;;2.27;2.17;;;;;;;-4.31;100.00;96333.53;5017171;28;20459;-67
2023/02/26 03:19:15;;;;;;;2.20;2.20;;;;;;;-4.36;100.00;96339.88;5070773;28;20456;-69
2023/02/26 03:21:49;;;;;;;3.40;2.10;;;;;;;-4.36;100.00;96342.47;5060600;28;20455;-69
2023/02/26 03:24:23;;;;;;;2.37;2.27;;;;;;;-4.43;100.00;96345.59;5043911;28;20225;-68
2023/02/26 03:26:54;;;;;;;3.07;1.80;;;;;;;-4.43;100.00;96346.41;5068642;28;20202;-69
2023/02/26 03:29:31;;;;;;;2.20;2.10;;;;;;;-4.45;100.00;96348.28;5025745;28;20862;-68
2023/02/26 03:32:03;;;;;;;3.00;2.50;;;;;;;-4.45;100.00;96357.81;5061938;28;20456;-69
2023/02/26 03:34:37;;;;;;;3.07;2.33;;;;;;;-4.52;100.00;96360.00;5082171;27;20249;-68
2023/02/26 03:37:07;;;;;;;2.90;2.60;;;;;;;-4.54;100.00;96359.28;5082616;27;20196;-70
2023/02/26 03:39:39;;;;;;;2.80;2.60;;;;;;;-4.54;100.00;96365.31;5059833;27;20209;-69
2023/02/26 03:42:11;;;;;;;2.83;2.50;;;;;;;-4.49;100.00;96361.56;5084081;28;20455;-68
2023/02/26 03:44:44;;;;;;;2.27;2.17;;;;;;;-4.50;100.00;96371.06;5082510;28;20791;-70
2023/02/26 03:47:15;;;;;;;2.50;2.40;;;;;;;-4.54;100.00;96369.63;5040468;27;20937;-68
2023/02/26 03:49:45;;;;;;;2.50;2.40;;;;;;;-4.57;100.00;96367.28;5092026;27;20448;-69
2023/02/26 03:52:13;;;;;;;2.30;2.20;;;;;;;-4.58;100.00;96376.78;5083326;28;20225;-67
2023/02/26 03:54:43;;;;;;;2.53;2.40;;;;;;;-4.58;100.00;96379.34;5059922;27;20230;-69
2023/02/26 03:57:11;;;;;;;3.20;3.00;;;;;;;-4.52;100.00;96378.94;5083330;27;20289;-68
2023/02/26 03:59:38;;;;;;;2.43;2.23;;;;;;;-4.54;100.00;96382.56;5082143;27;20773;-69
2023/02/26 04:02:16;;;;;;;2.87;2.63;;;;;;;-4.60;100.00;96375.25;5040487;27;20935;-67
2023/02/26 04:04:46;;;;;;;2.30;2.20;;;;;;;-4.53;100.00;96386.81;5084747;27;20345;-69
2023/02/26 04:07:16;;;;;;;2.53;2.33;;;;;;;-4.49;100.00;96390.00;5083227;27;20189;-68
2023/02/26 04:09:44;;;;;;;2.50;2.40;;;;;;;-4.46;100.00;96392.38;5057571;28;20363;-69
2023/02/26 04:12:12;;;;;;;2.53;2.43;;;;;;;-4.44;100.00;96390.50;5085773;27;20458;-68
2023/02/26 04:14:40;;;;;;;2.73;2.50;;;;;;;-4.43;100.00;96398.13;5083914;27;20426;-68
2023/02/26 04:17:07;;;;;;;2.93;2.73;;;;;;;-4.42;100.00;96401.56;5019286;27;20445;-68
2023/02/26 04:19:36;;;;;;;5.50;3.80;;;;;;;-4.41;100.00;96406.59;5080045;27;20571;-69
2023/02/26 04:22:04;;;;;;;5.90;5.07;;;;;;;-4.45;100.00;96401.78;5086437;27;20199;-69
2023/02/26 04:24:31;;;;;;;4.67;4.20;;;;;;;-4.41;100.00;96406.59;5055513;28;20601;-68
2023/02/26 04:26:59;;;;;;;2.90;2.70;;;;;;;-4.41;100.00;96400.63;5072842;28;20199;-69
2023/02/26 04:29:27;;;;;;;3.97;3.30;;;;;;;-4.42;100.00;96399.78;5081946;27;20459;-69
2023/02/26 04:31:55;;;;;;;2.80;2.43;;;;;;;-4.41;100.00;96401.44;5012018;27;20835;-68
2023/02/26 04:34:22;;;;;;;3.13;2.93;;;;;;;-4.36;100.00;96409.72;5082615;28;20706;-69
2023/02/26 04:36:51;;;;;;;3.07;2.63;;;;;;;-4.34;100.00;96411.34;5078436;28;20614;-70
2023/02/26 04:39:19;;;;;;;3.03;2.80;;;;;;;-4.38;100.00;96414.13;5082532;28;20203;-69
2023/02/26 04:41:47;;;;;;;2.53;2.40;;;;;;;-4.38;100.00;96411.56;5057274;27;20206;-69
2023/02/26 04:44:14;;;;;;;2.70;2.60;;;;;;;-4.45;100.00;96412.13;5076330;27;20467;-70
2023/02/26 04:46:42;;;;;;;2.77;2.57;;;;;;;-4.51;100.00;96410.78;5045956;27;20206;-68
2023/02/26 04:49:10;;;;;;;2.80;2.60;;;;;;;-4.51;100.00;96406.47;5080849;27;20232;-68
2023/02/26 04:51:37;;;;;;;2.87;2.77;;;;;;;-4.58;100.00;96399.22;5086282;27;20198;-72
2023/02/26 04:54:06;;;;;;;2.50;2.40;;;;;;;-4.56;100.00;96418.03;5088284;27;20506;-70
2023/02/26 04:56:34;;;;;;;4.27;3.07;;;;;;;-4.58;100.00;96417.34;5059413;27;20206;-70
2023/02/26 04:59:01;;;;;;;3.00;2.80;;;;;;;-4.56;100.00;96423.22;5085310;28;20198;-70
2023/02/26 05:01:29;;;;;;;2.70;2.50;;;;;;;-4.54;100.00;96423.94;5086816;28;20207;-69
2023/02/26 05:03:57;;;;;;;4.57;2.53;;;;;;;-4.52;100.00;96433.25;5036503;28;20490;-71
2023/02/26 05:06:25;;;;;;;2.40;2.30;;;;;;;-4.52;100.00;96435.00;5080192;28;20617;-71
2023/02/26 05:08:53;;;;;;;2.80;2.70;;;;;;;-4.54;100.00;96442.88;5081490;28;20519;-71
2023/02/26 05:11:22;;;;;;;5.40;3.10;;;;;;;-4.51;100.00;96440.06;5065960;28;20692;-71
2023/02/26 05:13:49;;;;;;;3.00;2.80;;;;;;;-4.49;100.00;96437.34;5081284;28;20458;-71
2023/02/26 05:16:17;;;;;;;3.10;2.90;;;;;;;-4.48;100.00;96446.78;5086853;28;20620;-71
2023/02/26 05:18:45;;;;;;;2.90;2.70;;;;;;;-4.46;100.00;96447.47;5042703;28;20213;-69
2023/02/26 05:21:12;;;;;;;3.03;2.83;;;;;;;-4.44;100.00;96449.97;5080199;28;20198;-69
2023/02/26 05:23:40;;;;;;;2.40;2.30;;;;;;;-4.43;100.00;96454.22;5081362;28;20324;-69
2023/02/26 05:26:07;;;;;;;2.50;2.40;;;;;;;-4.43;100.00;96447.25;5061944;28;20205;-71
2023/02/26 05:28:37;;;;;;;2.70;2.60;;;;;;;-4.38;100.00;96455.50;5081423;28;20229;-69
2023/02/26 05:31:05;;;;;;;4.47;2.47;;;;;;;-4.40;100.00;96454.00;5082596;28;20384;-71
2023/02/26 05:33:33;;;;;;;3.23;3.03;;;;;;;-4.37;100.00;96457.16;5082731;28;20484;-70
2023/02/26 05:36:00;;;;;;;3.23;3.03;;;;;;;-4.41;100.00;96460.91;5047381;28;20510;-71
2023/02/26 05:38:28;;;;;;;3.30;3.10;;;;;;;-4.44;100.00;96463.72;5078437;28;20520;-69
2023/02/26 05:40:56;;;;;;;3.00;2.80;;;;;;;-4.47;100.00;96465.72;5096335;28;20244;-71
2023/02/26 05:43:25;;;;;;;2.80;2.70;;;;;;;-4.54;100.00;96473.06;5069802;28;20258;-71
2023/02/26 05:45:54;;;;;;;3.50;3.30;;;;;;;-4.57;100.00;96465.53;5083219;28;20201;-71
2023/02/26 05:48:22;;;;;;;3.83;3.53;;;;;;;-4.67;100.00;96458.41;5080496;28;20257;-71
2023/02/26 05:50:50;;;;;;;2.97;2.83;;;;;;;-4.68;100.00;96471.44;5040875;28;21380;-69
2023/02/26 05:53:18;;;;;;;3.43;3.23;;;;;;;-4.70;100.00;96481.91;5083906;28;20534;-70
2023/02/26 05:55:46;;;;;;;3.50;3.20;;;;;;;-4.71;100.00;96474.22;5065184;28;20729;-69
2023/02/26 05:58:14;;;;;;;3.57;3.30;;;;;;;-4.73;100.00;96482.13;5062457;28;20224;-70
2023/02/26 06:00:42;;;;;;;3.30;3.10;;;;;;;-4.78;100.00;96484.16;5080290;28;20209;-69
2023/02/26 06:03:11;;;;;;;3.50;3.20;;;;;;;-4.81;100.00;96485.22;5081055;28;20199;-71
2023/02/26 06:05:39;;;;;;;3.37;3.07;;;;;;;-4.84;100.00;96487.16;5053094;28;20204;-70
2023/02/26 06:08:07;;;;;;;4.27;3.77;;;;;;;-4.90;100.00;96497.94;5070286;28;20210;-71
2023/02/26 06:10:34;;;;;;;3.93;3.60;;;;;;;-4.93;100.00;96493.78;5072714;28;20445;-69
2023/02/26 06:13:02;;;;;;;3.60;3.40;;;;;;;-4.94;100.00;96505.91;5051668;28;20945;-71
2023/02/26 06:15:29;;;;;;;3.60;3.40;;;;;;;-4.96;100.00;96510.34;5079787;27;20228;-70
2023/02/26 06:17:57;;;;;;;4.53;3.20;;;;;;;-4.90;100.00;96513.44;5084913;28;20330;-69
2023/02/26 06:20:26;;;;;;;4.00;3.70;;;;;;;-4.91;100.00;96524.72;5081196;28;20749;-71
2023/02/26 06:22:54;;;;;;;3.77;3.50;;;;;;;-4.88;100.00;96527.91;5027571;28;20837;-71
2023/02/26 06:25:21;;;;;;;3.80;3.50;;;;;;;-4.81;100.00;96531.75;5085014;27;20232;-70
2023/02/26 06:27:49;;;;;;;3.00;2.80;;;;;;;-4.76;100.00;96523.66;5082700;28;20711;-71
2023/02/26 06:30:18;;;;;;;3.13;2.83;;;;;;;-4.69;100.00;96537.84;5050657;28;21767;-71
2023/02/26 06:32:46;;;;;;;3.60;3.40;;;;;;;-4.67;100.00;96535.13;5077591;28;20765;-69
2023/02/26 06:35:13;;;;;;;5.53;4.83;;;;;;;-4.62;100.00;96542.59;5086527;28;20227;-71
2023/02/26 06:37:42;;;;;;;2.97;2.83;;;;;;;-4.62;100.00;96545.16;5032925;28;20416;-69
2023/02/26 06:40:11;;;;;;;3.67;3.47;;;;;;;-4.54;100.00;96548.03;5078831;28;20211;-71
2023/02/26 06:42:39;;;;;;;3.47;3.33;;;;;;;-4.50;100.00;96544.31;5086860;27;20194;-69
2023/02/26 06:45:07;;;;;;;3.10;3.00;;;;;;;-4.53;100.00;96552.28;5056896;27;20692;-70
2023/02/26 06:47:35;;;;;;;3.50;3.20;;;;;;;-4.43;100.00;96562.84;5095933;27;20451;-69
2023/02/26 06:50:04;;;;;;;3.23;3.10;;;;;;;-4.42;100.00;96564.47;5090632;27;20447;-69
2023/02/26 06:52:32;;;;;;;3.30;3.10;;;;;;;-4.40;100.00;96568.59;5086064;27;20198;-68
2023/02/26 06:55:02;;;;;;;3.37;3.17;;;;;;;-4.39;100.00;96580.59;5066410;27;21095;-69
2023/02/26 06:57:29;;;;;;;3.30;3.20;;;;;;;-4.40;100.00;96578.13;5097606;27;20201;-68
2023/02/26 06:59:57;;;;;;;3.33;3.13;;;;;;;-4.31;100.00;96593.00;5080827;27;20455;-70
2023/02/26 07:02:24;;;;;;;4.03;3.83;;;;;;;-4.25;100.00;96589.19;5071366;27;20521;-68
2023/02/26 07:04:52;;;;;;;3.10;3.00;;;;;;;-4.19;100.00;96591.34;5086990;27;20474;-70
2023/02/26 07:07:20;;;;;;;3.23;3.03;;;;;;;-4.16;100.00;96600.66;5091068;27;20201;-69
2023/02/26 07:09:48;;;;;;;3.83;3.53;;;;;;;-4.19;100.00;96599.09;5034435;27;20513;-69
2023/02/26 07:12:17;;;;;;;3.80;3.60;;;;;;;-4.26;100.00;96596.09;5090234;27;20197;-70
2023/02/26 07:14:45;;;;;;;3.70;3.40;;;;;;;-4.25;100.00;96604.72;5085282;27;20225;-68
2023/02/26 07:17:19;;;;;;;4.07;3.70;;;;;;;-4.19;100.00;96598.25;5064878;27;20479;-69
2023/02/26 07:19:47;;;;;;;3.80;3.50;;;;;;;-4.13;100.00;96605.63;5085612;27;20196;-69
2023/02/26 07:22:15;;;;;;;3.40;3.10;;;;;;;-4.05;100.00;96615.41;5080962;27;20202;-69
2023/02/26 07:24:43;;;;;;;3.33;3.10;;;;;;;-4.01;100.00;96611.69;5037295;28;20487;-68
2023/02/26 07:27:11;;;;;;;3.73;3.53;;;;;;;-3.97;100.00;96620.91;5080871;28;20466;-70
2023/02/26 07:29:40;;;;;;;3.60;3.40;;;;;;;-4.09;100.00;96613.06;5080685;28;20455;-69
2023/02/26 07:32:08;;;;;;;3.50;3.27;;;;;;;-3.93;100.00;96624.94;5087337;27;20459;-69
2023/02/26 07:34:35;;;;;;;4.47;4.17;;;;;;;-3.75;100.00;96625.41;5072141;27;20510;-68
2023/02/26 07:37:03;;;;;;;4.60;4.30;;;;;;;-3.49;100.00;96635.66;5078795;27;20577;-69
2023/02/26 07:39:30;;;;;;;4.60;4.30;;;;;;;-3.28;100.00;96635.88;5045754;27;20456;-68
2023/02/26 07:41:58;;;;;;;4.40;4.10;;;;;;;-3.19;100.00;96629.22;5088467;27;20452;-69
2023/02/26 07:44:26;;;;;;;3.67;3.47;;;;;;;-2.89;100.00;96640.88;5089635;27;20526;-70
2023/02/26 07:46:54;;;;;;;4.20;4.00;;;;;;;-2.75;100.00;96645.03;5086356;27;20386;-70
2023/02/26 07:49:23;;;;;;;4.00;3.80;;;;;;;-2.83;100.00;96647.38;5066749;27;20795;-71
2023/02/26 07:51:50;;;;;;;4.37;3.20;;;;;;;-2.99;100.00;96653.66;5080328;28;20402;-71
2023/02/26 07:54:18;;;;;;;3.97;3.67;;;;;;;-3.05;100.00;96651.53;5078351;28;20228;-71
2023/02/26 07:56:45;;;;;;;3.80;3.57;;;;;;;-3.07;100.00;96661.19;5039491;28;20214;-68
2023/02/26 07:59:13;;;;;;;3.70;3.30;;;;;;;-3.10;100.00;96658.81;5089084;28;20194;-70
2023/02/26 08:01:40;;;;;;;4.57;4.17;;;;;;;-3.09;100.00;96663.88;5080480;27;20209;-68
2023/02/26 08:04:09;;;;;;;6.67;5.13;;;;;;;-2.89;100.00;96663.38;5064618;27;20225;-70
2023/02/26 08:06:37;;;;;;;4.97;4.67;;;;;;;-2.96;100.00;96665.59;5084822;28;20834;-69
2023/02/26 08:09:05;;;;;;;3.50;3.30;;;;;;;-2.83;100.00;96666.34;5084787;28;20404;-70
2023/02/26 08:11:35;;;;;;;3.47;3.27;;;;;;;-2.91;100.00;96663.50;5042459;27;20522;-69
2023/02/26 08:14:03;;;;;;;3.70;3.40;;;;;;;-2.97;100.00;96676.91;5083401;28;20442;-69
2023/02/26 08:16:30;;;;;;;3.27;3.10;;;;;;;-2.90;100.00;96675.50;5091028;28;20217;-68
2023/02/26 08:18:58;;;;;;;3.30;3.10;;;;;;;-2.87;100.00;96677.88;5062476;28;20205;-70
2023/02/26 08:21:27;;;;;;;3.43;3.23;;;;;;;-2.87;100.00;96672.69;5087864;28;20637;-70
2023/02/26 08:23:55;;;;;;;3.80;3.60;;;;;;;-2.87;100.00;96698.63;5084005;28;20466;-69
2023/02/26 08:26:22;;;;;;;3.27;3.00;;;;;;;-2.83;100.00;96697.44;5088315;28;20201;-71
2023/02/26 08:28:51;;;;;;;3.00;2.90;;;;;;;-2.85;100.00;96695.91;5036643;27;20354;-70
2023/02/26 08:31:18;;;;;;;3.00;2.90;;;;;;;-2.87;100.00;96696.03;5088931;28;20545;-70
2023/02/26 08:33:47;;;;;;;2.50;2.40;;;;;;;-2.91;100.00;96700.59;5081296;27;20221;-69
2023/02/26 08:36:14;;;;;;;3.27;3.07;;;;;;;-2.88;100.00;96693.53;5065491;28;20313;-71
2023/02/26 08:38:43;;;;;;;2.70;2.60;;;;;;;-2.84;100.00;96703.59;5081587;28;20197;-69
2023/02/26 08:41:11;;;;;;;3.57;3.37;;;;;;;-2.90;100.00;96709.22;5089780;28;20253;-70
2023/02/26 08:43:38;;;;;;;3.23;3.03;;;;;;;-2.58;100.00;96705.19;5044198;27;20236;-69
2023/02/26 08:46:06;;;;;;;2.57;2.47;;;;;;;-2.38;100.00;96711.50;5084053;27;20210;-70
2023/02/26 08:48:34;;;;;;;3.53;3.33;;;;;;;-1.83;100.00;96710.88;5088293;28;20757;-69
2023/02/26 08:51:01;;;;;;;3.57;3.27;;;;;;;-1.27;100.00;96715.19;5062681;27;20202;-69
2023/02/26 08:53:29;;;;;;;3.00;2.90;;;;;;;-0.52;100.00;96701.44;5085853;27;20225;-68
2023/02/26 08:55:58;;;;;;;3.27;3.07;;;;;;;-0.20;100.00;96713.56;5089661;27;20394;-70
2023/02/26 08:58:26;;;;;;;2.97;2.67;;;;;;;-0.40;99.20;96708.25;5042314;28;20210;-68
2023/02/26 09:00:54;;;;;;;2.87;2.67;;;;;;;-0.74;99.06;96722.25;5079664;27;20202;-69
2023/02/26 09:03:21;;;;;;;2.63;2.53;;;;;;;-0.81;100.00;96725.47;5082215;28;20198;-68
2023/02/26 09:05:50;;;;;;;2.83;2.73;;;;;;;-0.79;100.00;96729.56;5056478;28;20273;-67
2023/02/26 09:08:19;;;;;;;2.77;2.67;;;;;;;-0.92;99.58;96727.16;5088635;28;20288;-68
2023/02/26 09:10:47;;;;;;;2.97;2.77;;;;;;;-0.53;100.00;96729.25;5084643;28;20672;-67
2023/02/26 09:13:16;;;;;;;2.83;2.67;;;;;;;-0.55;100.00;96725.13;5061986;28;20824;-68
2023/02/26 09:15:44;;;;;;;2.50;2.40;;;;;;;-0.68;99.79;96733.91;5086319;28;20196;-67
2023/02/26 09:18:14;;;;;;;2.33;2.23;;;;;;;-1.07;99.61;96730.97;5085308;28;20748;-68
2023/02/26 09:20:42;;;;;;;2.17;1.90;;;;;;;-1.24;98.53;96748.72;5072036;28;20213;-67
2023/02/26 09:23:11;;;;;;;2.17;2.07;;;;;;;-1.42;96.97;96747.56;5088829;28;20616;-68
2023/02/26 09:25:39;;;;;;;2.73;2.63;;;;;;;-1.29;98.34;96750.88;5088700;28;20289;-67
2023/02/26 09:28:07;;;;;;;2.17;2.07;;;;;;;-1.02;97.64;96749.63;5091414;28;20491;-68
2023/02/26 09:30:36;;;;;;;2.30;2.20;;;;;;;-0.68;94.92;96740.91;5038287;28;20224;-68
2023/02/26 09:33:03;;;;;;;2.30;2.20;;;;;;;-0.38;92.91;96754.94;5088286;28;20202;-69
2023/02/26 09:35:31;;;;;;;2.67;2.47;;;;;;;-0.09;91.77;96752.56;5083033;28;20735;-68
2023/02/26 09:37:59;;;;;;;2.57;2.47;;;;;;;0.48;90.32;96759.16;5068029;28;20249;-69
2023/02/26 09:40:36;;;;;;;4.47;4.17;;;;;;;0.67;88.97;96768.84;5090231;28;20580;-68
2023/02/26 09:43:21;;;;;;;4.80;4.30;;;;;;;0.51;88.21;96775.34;5086686;28;20216;-68
2023/02/26 09:45:51;;;;;;;3.40;3.20;;;;;;;1.13;89.12;96764.84;5040862;28;20893;-70
2023/02/26 09:48:20;;;;;;;2.67;2.57;;;;;;;1.35;86.53;96762.13;5086454;28;20206;-70
2023/02/26 09:50:51;;;;;;;2.70;2.50;;;;;;;1.36;83.90;96766.38;5091895;28;20201;-70
2023/02/26 09:53:22;;;;;;;2.13;2.00;;;;;;;1.64;83.33;96771.75;5068667;27;20479;-69
2023/02/26 09:55:50;;;;;;;2.03;1.93;;;;;;;1.96;82.66;96775.84;5086876;27;20780;-69
2023/02/26 09:58:22;;;;;;;2.10;2.00;;;;;;;2.37;82.91;96789.53;5094129;27;20700;-68
2023/02/26 10:00:58;;;;;;;1.97;1.87;;;;;;;1.87;80.67;96791.38;5044271;27;21997;-67
2023/02/26 10:03:30;;;;;;;2.00;1.90;;;;;;;0.67;79.45;96780.09;5085075;27;20277;-69
2023/02/26 10:06:18;;;;;;;2.03;1.93;;;;;;;0.49;82.12;96805.94;5091568;27;20773;-68
2023/02/26 10:08:52;;;;;;;1.47;1.47;;;;;;;-0.03;86.43;96809.34;5063973;27;20202;-66
2023/02/26 10:11:29;;;;;;;2.00;1.90;;;;;;;-0.39;93.31;96818.38;5089891;27;20202;-69
2023/02/26 10:14:02;;;;;;;1.80;1.70;;;;;;;-0.39;97.37;96832.22;5093373;27;20291;-67
2023/02/26 10:16:35;;;;;;;1.67;1.67;;;;;;;-0.47;100.00;96830.25;5083867;27;20200;-68
2023/02/26 10:19:06;;;;;;;8.23;2.43;;;;;;;-0.31;100.00;96836.84;5070802;28;20308;-67
2023/02/26 10:21:40;;;;;;;2.30;2.20;;;;;;;-0.15;98.67;96829.41;5090070;27;20202;-68
2023/02/26 10:24:13;;;;;;;1.97;1.90;;;;;;;-0.30;98.38;96836.69;5064555;27;20228;-67
2023/02/26 10:26:42;;;;;;;2.00;2.00;;;;;;;-0.34;100.00;96832.69;5092783;27;20401;-67
2023/02/26 10:29:17;;;;;;;1.80;1.80;;;;;;;-0.15;100.00;96842.44;5090275;27;20502;-68
2023/02/26 10:31:59;;;;;;;2.20;2.10;;;;;;;-0.19;100.00;96846.25;5090470;27;20197;-68
2023/02/26 10:34:31;;;;;;;2.27;2.17;;;;;;;-0.20;100.00;96848.97;5044346;27;20224;-69
2023/02/26 10:37:05;;;;;;;1.80;1.80;;;;;;;-0.24;99.81;96843.19;5084464;27;20206;-70
2023/02/26 10:39:36;;;;;;;1.80;1.70;;;;;;;-0.09;99.09;96841.13;5066991;27;20383;-68
2023/02/26 10:42:12;;;;;;;2.30;2.20;;;;;;;0.12;97.49;96840.28;5085019;27;20924;-69
2023/02/26 10:44:44;;;;;;;1.83;1.73;;;;;;;0.11;91.81;96829.06;5084712;27;20467;-68
2023/02/26 10:47:22;;;;;;;2.10;2.00;;;;;;;0.10;90.40;96843.03;5091429;27;20389;-70
2023/02/26 10:49:55;;;;;;;2.10;2.00;;;;;;;0.00;88.81;96834.34;5041719;27;20864;-69
2023/02/26 10:52:25;;;;;;;1.97;1.87;;;;;;;0.13;90.48;96844.53;5084318;27;20190;-68
2023/02/26 10:55:03;;;;;;;2.30;2.20;;;;;;;0.41;90.33;96850.91;5061047;27;20230;-68
2023/02/26 10:57:34;;;;;;;2.07;1.97;;;;;;;0.13;86.43;96847.16;5089733;27;20226;-68
2023/02/26 11:00:02;;;;;;;1.87;1.77;;;;;;;-0.24;87.07;96851.00;5087190;27;20210;-70
2023/02/26 11:02:40;;;;;;;2.17;2.07;;;;;;;-0.16;87.76;96846.00;5077357;27;20208;-69
2023/02/26 11:05:18;;;;;;;2.50;2.40;;;;;;;0.14;87.42;96847.03;5087962;27;20240;-70
2023/02/26 11:07:49;;;;;;;2.27;2.17;;;;;;;0.48;87.21;96842.59;5082032;27;20309;-68
2023/02/26 11:10:19;;;;;;;2.40;2.20;;;;;;;0.61;85.71;96845.78;5070089;27;20221;-70
2023/02/26 11:12:47;;;;;;;2.30;2.20;;;;;;;0.10;83.63;96850.00;5086106;27;20521;-68
2023/02/26 11:15:17;;;;;;;2.03;1.93;;;;;;;-0.15;84.15;96847.66;5087091;27;20210;-71
2023/02/26 11:17:47;;;;;;;3.20;2.20;;;;;;;0.00;85.44;96855.19;5081974;27;20230;-69
2023/02/26 11:20:33;;;;;;;1.70;1.70;;;;;;;0.28;83.33;96845.06;5047863;27;20379;-70
2023/02/26 11:23:02;;;;;;;1.97;1.90;;;;;;;0.25;80.96;96843.56;5084908;28;20334;-70
2023/02/26 11:25:32;;;;;;;2.03;1.93;;;;;;;0.47;79.97;96839.13;5047208;28;20213;-68
2023/02/26 11:28:04;;;;;;;1.93;1.83;;;;;;;0.82;78.66;96845.75;5084218;28;20466;-70
2023/02/26 11:30:36;;;;;;;2.03;1.93;;;;;;;0.82;78.22;96834.50;5068601;28;20205;-69
2023/02/26 11:33:14;;;;;;;2.07;2.03;;;;;;;0.84;77.79;96836.00;5061293;27;20214;-68
2023/02/26 11:35:41;;;;;;;2.40;2.30;;;;;;;1.30;77.53;96843.44;5027944;28;20221;-70
2023/02/26 11:38:16;;;;;;;2.33;2.23;;;;;;;1.58;76.83;96836.63;5040587;27;20249;-69
2023/02/26 11:40:46;;;;;;;4.00;3.67;;;;;;;0.87;77.66;96829.72;5066032;27;20228;-69